Time;durP1;ratioP1;P1;durP2;ratioP2;P2;SDS_P1;SDS_P2;PMS_P1;PMS_P2;Temp;Humidity;BMP_temperature;BMP_pressure;BME280_temperature;BME280_humidity;BME280_pressure;Samples;Min_cycle;Max_cycle;Signal;HPM_P1;HPM_P2
2021/06/14 17:56:50;;;;;;;9.70;2.20;;;22.10;65.00;;;;;;4396511;31;255589;-51
2021/06/14 17:59:16;;;;;;;10.25;2.20;;;24.00;63.00;;;;;;4418370;32;20026;-54
2021/06/14 18:01:43;;;;;;;12.30;2.87;;;24.10;62.90;;;;;;4416096;32;20030;-54
2021/06/14 18:04:09;;;;;;;7.53;2.37;;;24.10;62.80;;;;;;4416660;32;20106;-51
2021/06/14 18:06:34;;;;;;;14.55;2.55;;;24.10;62.70;;;;;;4415143;32;20160;-49
2021/06/14 18:09:00;;;;;;;9.07;2.30;;;24.20;62.70;;;;;;4402479;32;20522;-49
2021/06/14 18:11:26;;;;;;;12.32;2.30;;;24.20;62.70;;;;;;4404035;32;20342;-53
2021/06/14 18:13:52;;;;;;;9.75;2.45;;;24.20;62.60;;;;;;4402798;32;20351;-49
2021/06/14 18:16:18;;;;;;;11.38;2.20;;;24.20;62.60;;;;;;4403527;32;20077;-48
2021/06/14 18:18:44;;;;;;;8.70;2.17;;;24.20;62.50;;;;;;4402515;32;20072;-53
2021/06/14 18:21:11;;;;;;;22.73;2.20;;;24.20;62.30;;;;;;4404047;32;20055;-54
2021/06/14 18:23:36;;;;;;;17.52;2.00;;;24.20;62.20;;;;;;4402492;32;20058;-51
2021/06/14 18:26:02;;;;;;;8.35;2.12;;;24.20;62.10;;;;;;4386873;32;20139;-49
2021/06/14 18:28:28;;;;;;;12.68;2.20;;;24.20;62.00;;;;;;4415424;32;20030;-49
2021/06/14 18:30:54;;;;;;;8.30;2.15;;;24.30;62.00;;;;;;4403524;32;20163;-52
2021/06/14 18:33:23;;;;;;;16.62;2.62;;;24.30;61.90;;;;;;4403963;32;20039;-53
2021/06/14 18:35:51;;;;;;;10.85;2.50;;;24.30;61.90;;;;;;4415064;32;20031;-53
2021/06/14 18:38:20;;;;;;;11.77;2.22;;;24.30;61.80;;;;;;4402440;32;20038;-50
2021/06/14 18:40:50;;;;;;;13.23;2.55;;;24.30;61.80;;;;;;4402075;32;20055;-54
2021/06/14 18:43:16;;;;;;;8.32;2.10;;;24.30;61.80;;;;;;4403870;32;20053;-53
2021/06/14 18:45:41;;;;;;;12.98;2.55;;;24.30;61.80;;;;;;4389866;32;20031;-52
2021/06/14 18:48:07;;;;;;;14.68;2.05;;;24.30;61.80;;;;;;4399163;32;20087;-53
2021/06/14 18:50:33;;;;;;;8.45;1.90;;;24.20;61.90;;;;;;4403433;32;20083;-53
2021/06/14 18:52:59;;;;;;;9.38;2.47;;;24.20;61.90;;;;;;4402116;32;20115;-54
2021/06/14 18:55:25;;;;;;;8.77;1.70;;;24.20;62.00;;;;;;4402494;32;20365;-49
2021/06/14 18:57:51;;;;;;;5.75;2.05;;;24.20;62.10;;;;;;4389832;32;20026;-49
2021/06/14 19:00:17;;;;;;;9.05;1.73;;;24.20;62.20;;;;;;4403395;32;20100;-52
2021/06/14 19:02:43;;;;;;;12.93;2.15;;;24.20;62.20;;;;;;4403102;32;20071;-51
2021/06/14 19:05:09;;;;;;;9.27;2.42;;;24.10;62.30;;;;;;4403157;32;20077;-56
2021/06/14 19:07:34;;;;;;;19.08;2.70;;;24.10;62.50;;;;;;4398261;32;20046;-50
2021/06/14 19:10:00;;;;;;;18.12;2.60;;;24.10;62.60;;;;;;4391466;32;20093;-50
2021/06/14 19:12:29;;;;;;;21.20;2.60;;;24.10;62.70;;;;;;4393172;32;20036;-52
2021/06/14 19:14:54;;;;;;;19.87;2.50;;;24.00;62.80;;;;;;4392590;32;20077;-50
2021/06/14 19:17:20;;;;;;;20.10;2.75;;;24.00;62.90;;;;;;4391758;32;20034;-55
2021/06/14 19:19:46;;;;;;;18.02;2.97;;;24.00;62.80;;;;;;4391974;32;20050;-53
2021/06/14 19:22:12;;;;;;;44.80;3.78;;;24.00;62.90;;;;;;4391923;32;20035;-51
2021/06/14 19:24:38;;;;;;;32.50;3.35;;;23.90;62.90;;;;;;4391709;32;20440;-52
2021/06/14 19:27:04;;;;;;;18.45;2.78;;;23.90;63.00;;;;;;4392124;32;20084;-53
2021/06/14 19:29:30;;;;;;;11.90;2.45;;;23.90;63.40;;;;;;4391456;32;20031;-50
2021/06/14 19:31:55;;;;;;;10.35;2.05;;;23.90;63.70;;;;;;4393854;32;20058;-50
2021/06/14 19:34:21;;;;;;;13.98;2.70;;;23.90;64.00;;;;;;4393848;32;20022;-56
2021/06/14 19:36:47;;;;;;;13.38;2.20;;;23.90;64.20;;;;;;4393589;32;20019;-54
2021/06/14 19:39:13;;;;;;;8.63;2.28;;;23.80;64.40;;;;;;4392554;32;20527;-53
2021/06/14 19:41:39;;;;;;;10.15;2.40;;;23.80;64.60;;;;;;4380071;32;20054;-54
2021/06/14 19:44:05;;;;;;;5.93;2.33;;;23.80;64.70;;;;;;4392505;32;20402;-48
2021/06/14 20:00:24;;;;;;;4.53;2.03;;;23.70;65.10;;;;;;4369927;32;3087163;-85
2021/06/14 20:02:50;;;;;;;5.78;2.08;;;24.10;63.30;;;;;;4346529;32;20460;-86
2021/06/14 20:05:16;;;;;;;4.87;1.92;;;24.10;63.00;;;;;;4356092;32;20044;-85
2021/06/14 20:07:50;;;;;;;5.85;2.10;;;24.20;62.70;;;;;;4336270;32;20072;-84
2021/06/14 20:10:16;;;;;;;4.20;1.90;;;24.20;62.40;;;;;;4369931;32;20154;-85
2021/06/14 20:12:42;;;;;;;7.45;1.98;;;24.20;62.30;;;;;;4357026;32;20394;-85
2021/06/14 20:15:09;;;;;;;5.30;2.10;;;24.20;62.10;;;;;;4357672;32;20105;-85
2021/06/14 20:17:42;;;;;;;4.20;1.90;;;24.20;61.90;;;;;;4357102;32;20039;-85
2021/06/14 20:20:09;;;;;;;;;;;24.10;61.60;;;;;;4345734;32;20062;-86
2021/06/14 20:22:34;;;;;;;4.72;2.17;;;24.10;61.60;;;;;;4345465;32;19946;-85
2021/06/14 20:25:04;;;;;;;4.28;1.90;;;24.00;61.50;;;;;;4347637;32;20034;-86
2021/06/14 20:27:30;;;;;;;6.60;2.00;;;24.00;61.40;;;;;;4360199;32;20065;-86
2021/06/14 20:29:56;;;;;;;3.87;2.00;;;23.90;61.50;;;;;;4380346;32;20030;-84
2021/06/14 20:32:27;;;;;;;5.22;2.03;;;23.90;61.50;;;;;;4403574;32;20034;-85
2021/06/14 20:34:54;;;;;;;4.50;1.90;;;23.80;61.60;;;;;;4403628;32;20345;-85
2021/06/14 20:37:20;;;;;;;4.72;2.00;;;23.80;61.60;;;;;;4403337;32;20038;-86
2021/06/14 20:39:53;;;;;;;3.20;1.80;;;23.70;61.60;;;;;;4403161;32;20377;-85
2021/06/14 20:42:19;;;;;;;5.85;2.00;;;23.60;61.60;;;;;;4390972;32;20341;-86
2021/06/14 20:44:45;;;;;;;4.32;1.92;;;23.60;61.50;;;;;;4402650;32;20092;-85
2021/06/14 20:47:11;;;;;;;4.80;1.92;;;23.50;61.60;;;;;;4404414;32;20061;-84
2021/06/14 20:49:37;;;;;;;6.62;1.98;;;23.50;61.70;;;;;;4379108;32;20072;-85
2021/06/14 20:52:06;;;;;;;4.15;1.95;;;23.40;61.70;;;;;;4386710;32;20039;-87
2021/06/14 20:54:34;;;;;;;5.03;2.30;;;23.30;61.80;;;;;;4385380;32;20034;-84
2021/06/14 20:57:28;;;;;;;4.60;2.20;;;23.30;61.80;;;;;;4388117;32;20114;-85
2021/06/14 21:01:02;;;;;;;;;;;;;;;;;;;;;
2021/06/14 21:04:33;;;;;;;5.82;2.10;;;23.20;62.10;;;;;;4375274;32;20039;-85
2021/06/14 21:07:14;;;;;;;;;;;;;;;;;;;;;
2021/06/14 21:10:36;;;;;;;;;;;;;;;;;;;;;
2021/06/14 21:13:10;;;;;;;;;;;;;;;;;;;;;
2021/06/14 21:15:54;;;;;;;;;;;;;;;;;;;;;
2021/06/14 21:18:34;;;;;;;8.18;2.83;;;22.80;62.80;;;;;;4318528;33;20433;-84
2021/06/14 21:21:09;;;;;;;5.05;2.85;;;22.80;62.90;;;;;;4321667;33;20516;-84
2021/06/14 21:23:35;;;;;;;11.65;3.03;;;22.70;63.00;;;;;;4345011;33;20110;-83
2021/06/14 21:26:09;;;;;;;9.90;3.00;;;22.70;63.10;;;;;;4332409;33;20080;-84
2021/06/14 21:28:48;;;;;;;;;;;;;;;;;;;;;
2021/06/14 21:31:51;;;;;;;;;;;;;;;;;;;;;
2021/06/14 21:34:25;;;;;;;5.72;2.87;;;22.50;63.30;;;;;;4334421;33;20395;-84
2021/06/14 21:36:51;;;;;;;6.37;2.60;;;22.40;63.40;;;;;;4331650;33;20090;-83
2021/06/14 21:39:22;;;;;;;5.87;2.87;;;22.40;63.40;;;;;;4332194;33;20387;-82
2021/06/14 21:41:51;;;;;;;6.90;2.83;;;22.40;63.50;;;;;;4360719;32;20032;-83
2021/06/14 21:44:52;;;;;;;;;;;;;;;;;;;;;
2021/06/14 21:47:37;;;;;;;5.93;2.17;;;22.30;63.70;;;;;;4386448;32;20082;-80
2021/06/14 21:50:06;;;;;;;6.60;3.33;;;22.20;63.60;;;;;;4364017;32;20069;-82
2021/06/14 21:52:42;;;;;;;;;;;;;;;;;;;;;
2021/06/14 21:55:10;;;;;;;7.82;2.95;;;22.20;63.80;;;;;;4373658;32;20035;-85
2021/06/14 21:57:37;;;;;;;7.85;2.97;;;22.10;63.90;;;;;;4404209;32;20035;-88
2021/06/14 22:00:25;;;;;;;5.28;2.97;;;22.00;64.00;;;;;;4390042;32;20069;-84
2021/06/14 22:02:51;;;;;;;5.18;2.95;;;22.00;64.10;;;;;;4390290;32;20031;-84
2021/06/14 22:05:17;;;;;;;5.75;2.87;;;21.90;64.20;;;;;;4389929;32;20066;-84
2021/06/14 22:07:43;;;;;;;6.03;2.87;;;21.90;64.30;;;;;;4402872;32;20047;-85
2021/06/14 22:10:09;;;;;;;7.25;2.95;;;21.90;64.30;;;;;;4390503;32;20359;-84
2021/06/14 22:12:35;;;;;;;8.05;3.47;;;21.90;64.40;;;;;;4401912;32;20155;-83
2021/06/14 22:15:03;;;;;;;6.18;3.42;;;21.90;64.50;;;;;;4391597;32;20031;-84
2021/06/14 22:17:29;;;;;;;6.62;3.05;;;21.80;64.60;;;;;;4390957;32;20026;-83
2021/06/14 22:19:58;;;;;;;5.60;3.15;;;21.80;64.70;;;;;;4404720;32;20135;-86
2021/06/14 22:22:29;;;;;;;6.30;2.90;;;21.70;64.80;;;;;;4390527;32;20031;-87
2021/06/14 22:28:51;;;;;;;5.82;2.92;;;21.60;64.80;;;;;;4325930;33;20059;-83
2021/06/14 22:34:23;;;;;;;7.75;2.97;;;21.50;65.00;;;;;;4330135;33;20183;-84
2021/06/14 22:36:49;;;;;;;7.07;3.67;;;21.50;65.10;;;;;;4329267;33;20029;-83
2021/06/14 22:39:14;;;;;;;7.20;3.55;;;21.40;65.20;;;;;;4329515;33;20028;-83
2021/06/14 22:41:40;;;;;;;6.82;3.80;;;21.40;65.40;;;;;;4330863;33;20108;-84
2021/06/14 22:44:06;;;;;;;10.15;3.92;;;21.30;65.70;;;;;;4317284;33;20032;-82
2021/06/14 22:46:32;;;;;;;8.60;4.30;;;21.30;65.80;;;;;;4318092;33;20032;-83
2021/06/14 22:49:00;;;;;;;9.70;4.37;;;21.20;66.00;;;;;;4317715;33;20021;-81
2021/06/14 22:51:26;;;;;;;6.60;4.05;;;21.10;66.20;;;;;;4324638;33;20378;-81
2021/06/14 22:53:53;;;;;;;8.13;4.05;;;21.00;66.30;;;;;;4292596;33;20452;-82
2021/06/14 22:56:24;;;;;;;9.65;4.07;;;20.90;66.60;;;;;;4290518;33;20118;-84
2021/06/14 22:58:50;;;;;;;11.32;4.85;;;20.90;66.70;;;;;;4318009;33;20064;-84
2021/06/14 23:01:19;;;;;;;8.55;4.75;;;20.90;66.80;;;;;;4321802;33;20214;-84
2021/06/14 23:03:44;;;;;;;7.43;3.97;;;20.80;67.00;;;;;;4334166;33;20086;-85
2021/06/14 23:06:11;;;;;;;8.57;4.62;;;20.80;67.10;;;;;;4361212;32;20031;-84
2021/06/14 23:08:36;;;;;;;8.55;5.12;;;20.80;67.20;;;;;;4348899;32;20031;-84
2021/06/14 23:11:03;;;;;;;8.57;4.57;;;20.70;67.30;;;;;;4359746;32;20043;-84
2021/06/14 23:13:31;;;;;;;9.40;5.03;;;20.60;67.50;;;;;;4347266;32;20067;-83
2021/06/14 23:16:00;;;;;;;9.27;4.53;;;20.60;67.60;;;;;;4348043;32;20027;-83
2021/06/14 23:18:25;;;;;;;8.25;4.68;;;20.50;67.70;;;;;;4348563;33;20094;-85
2021/06/14 23:20:51;;;;;;;13.90;5.90;;;20.50;67.80;;;;;;4347227;33;20032;-84
2021/06/14 23:23:17;;;;;;;9.85;4.95;;;20.40;67.90;;;;;;4347824;33;20111;-83
2021/06/14 23:25:42;;;;;;;8.38;5.15;;;20.40;68.00;;;;;;4348859;32;20036;-84
2021/06/14 23:28:08;;;;;;;16.77;5.43;;;20.40;68.10;;;;;;4359360;32;20028;-83
2021/06/14 23:30:34;;;;;;;11.98;5.50;;;20.30;68.20;;;;;;4347168;33;20375;-84
2021/06/14 23:33:00;;;;;;;9.60;5.37;;;20.30;68.30;;;;;;4347626;33;20434;-84
2021/06/14 23:35:26;;;;;;;8.98;4.82;;;20.20;68.40;;;;;;4347232;33;20090;-83
2021/06/14 23:37:51;;;;;;;11.45;5.20;;;20.20;68.50;;;;;;4359507;32;20081;-83
2021/06/14 23:40:19;;;;;;;8.32;5.05;;;20.10;68.50;;;;;;4347683;33;20480;-83
2021/06/14 23:42:46;;;;;;;9.95;5.32;;;20.10;68.50;;;;;;4347151;33;20065;-84
2021/06/14 23:45:12;;;;;;;12.23;5.28;;;20.10;68.50;;;;;;4359388;32;20362;-84
2021/06/14 23:47:38;;;;;;;12.07;5.70;;;20.10;68.60;;;;;;4359513;32;20031;-84
2021/06/14 23:50:05;;;;;;;7.75;4.95;;;20.10;68.50;;;;;;4347202;32;20036;-84
2021/06/14 23:52:31;;;;;;;10.93;6.03;;;20.10;68.50;;;;;;4361999;32;20032;-84
2021/06/14 23:54:57;;;;;;;13.30;6.30;;;20.00;68.50;;;;;;4360575;32;20054;-83
2021/06/14 23:57:22;;;;;;;9.45;5.87;;;20.00;68.40;;;;;;4346918;33;20032;-83
2021/06/14 23:59:49;;;;;;;10.93;6.03;;;20.00;68.40;;;;;;4383700;32;20330;-83
